Flight Track Log - Related Links

Times and Time Zones

All times are in EDT time to prevent confusion due to time zone crossing. See the SKW6345 flight status page for this flight to view local times or setup timezone preferences in your user account.

Time Position Orientation Groundspeed Altitude Reporting Facility
EDT Latitude Longitude Course Direction KTS MPH feet Rate Location/Type
Sun 04:44:18 PM 45.7561 -111.1239 229° Southwest 193 222 5,300  Level Salt Lake Center
Sun 04:45:20 PM 45.7111 -111.1642 212° Southwest 239 275 6,900 1,984 Climbing Salt Lake Center
Sun 04:46:00 PM 45.3720 -111.8278 230° Southwest  Level Estimated
Sun 04:46:22 PM 45.7036 -111.2606 264° West 246 283 9,400  Level Salt Lake Center
Sun 04:47:00 PM 45.3040 -111.9395 229° Southwest  Level Estimated
Sun 04:47:24 PM 45.7158 -111.3644 280° West 255 293 11,300  Level Salt Lake Center
Sun 04:48:00 PM 45.2309 -112.0592 229° Southwest  Level Estimated
Sun 04:48:26 PM 45.7281 -111.4758 279° West 268 308 13,300  Level Salt Lake Center
Sun 04:49:00 PM 45.1576 -112.1786 229° Southwest  Level Estimated
Sun 04:49:28 PM 45.7403 -111.5900 279° West 283 326 15,300  Level Salt Lake Center
Sun 04:50:30 PM 45.7594 -111.7114 283° West 308 354 16,500 1,210 Climbing Salt Lake Center
Sun 04:51:32 PM 45.7872 -111.8353 288° West 324 373 17,800 1,561 Climbing Salt Lake Center
Sun 04:52:33 PM 45.8219 -111.9883 288° West 334 384 19,700 1,415 Climbing Salt Lake Center
Sun 04:53:35 PM 45.8492 -112.1161 287° West 335 386 20,700 919 Climbing Salt Lake Center
Sun 04:54:37 PM 45.8225 -112.2444 253° West 345 397 21,600 968 Climbing Salt Lake Center
Sun 04:55:39 PM 45.7628 -112.3581 233° Southwest 357 411 22,700 1,113 Climbing Salt Lake Center
Sun 04:56:41 PM 45.7033 -112.4717 233° Southwest 357 411 23,900 968 Climbing Salt Lake Center
Sun 04:57:43 PM 45.6447 -112.5844 233° Southwest 356 410 24,700 823 Climbing Salt Lake Center
Sun 04:58:45 PM 45.5836 -112.6986 233° Southwest 361 415 25,600 829 Climbing Salt Lake Center
Sun 04:59:46 PM 45.5100 -112.8389 233° Southwest 368 423 26,400 634 Climbing Salt Lake Center
Sun 05:00:48 PM 45.4475 -112.9539 232° Southwest 368 423 26,900 484 Climbing Salt Lake Center
Sun 05:01:50 PM 45.3850 -113.0725 233° Southwest 373 429 27,400 484 Climbing Salt Lake Center
Sun 05:02:52 PM 45.3214 -113.1914 233° Southwest 376 433 27,900 532 Climbing Salt Lake Center
Sun 05:03:54 PM 45.2503 -113.3233 233° Southwest 378 435 28,500 532 Climbing Salt Lake Center
Sun 05:04:56 PM 45.1883 -113.4389 233° Southwest 383 441 29,000 581 Climbing Salt Lake Center
Sun 05:05:58 PM 45.1153 -113.5714 232° Southwest 383 441 29,700 581 Climbing Salt Lake Center
Sun 05:07:00 PM 45.0533 -113.6853 232° Southwest 383 441 30,200 484 Climbing Salt Lake Center
Sun 05:08:02 PM 44.9797 -113.8183 232° Southwest 385 443 30,700 484 Climbing Salt Lake Center
Sun 05:09:04 PM 44.9186 -113.9319 233° Southwest 382 440 31,200 484 Climbing Salt Lake Center
Sun 05:10:06 PM 44.8508 -114.0547 232° Southwest 381 438 31,700 387 Climbing Salt Lake Center
Sun 05:11:08 PM 44.7781 -114.1869 232° Southwest 382 440 32,000 145 Climbing Salt Lake Center
Sun 05:12:10 PM 44.7133 -114.3014 232° Southwest 389 448 32,000  Level Salt Lake Center
Sun 05:13:11 PM 44.6483 -114.4192 232° Southwest 396 456 32,000  Level Salt Lake Center
Sun 05:14:13 PM 44.5689 -114.5583 231° Southwest 405 466 32,000  Level Salt Lake Center
Sun 05:15:16 PM 44.5028 -114.6772 232° Southwest 404 465 32,000  Level Salt Lake Center
Sun 05:16:17 PM 44.4233 -114.8178 232° Southwest 409 471 32,000  Level Salt Lake Center
Sun 05:17:19 PM 44.3539 -114.9386 231° Southwest 414 476 32,000  Level Salt Lake Center
Sun 05:18:21 PM 44.2725 -115.0792 231° Southwest 416 479 32,000  Level Salt Lake Center
Sun 05:19:23 PM 44.1997 -115.2008 230° Southwest 424 488 32,000  Level Salt Lake Center
Sun 05:20:25 PM 44.1303 -115.3219 231° Southwest 418 481 32,000  Level Salt Lake Center
Sun 05:21:27 PM 44.0492 -115.4639 232° Southwest 419 482 32,000  Level Salt Lake Center
Sun 05:22:29 PM 43.9781 -115.5844 231° Southwest 420 483 32,000  Level Salt Lake Center
Sun 05:23:31 PM 43.8961 -115.7256 231° Southwest 418 481 32,000  Level Salt Lake Center
Sun 05:24:33 PM 43.8247 -115.8472 231° Southwest 422 486 32,000  Level Salt Lake Center
Sun 05:25:35 PM 43.7411 -115.9881 231° Southwest 422 486 32,000  Level Salt Lake Center
Sun 05:26:37 PM 43.6703 -116.1078 231° Southwest 420 483 32,000  Level Salt Lake Center
Sun 05:27:39 PM 43.5992 -116.2269 231° Southwest 419 482 32,000  Level Salt Lake Center
Sun 05:28:41 PM 43.5156 -116.3669 231° Southwest 422 486 32,000  Level Salt Lake Center
Sun 05:29:43 PM 43.4439 -116.4856 230° Southwest 420 483 32,000  Level Salt Lake Center
Sun 05:30:45 PM 43.3600 -116.6247 230° Southwest 423 487 32,000  Level Salt Lake Center
Sun 05:31:47 PM 43.2881 -116.7425 230° Southwest 421 484 32,000  Level Salt Lake Center
Sun 05:32:49 PM 43.2039 -116.8811 230° Southwest 424 488 32,000  Level Salt Lake Center
Sun 05:33:51 PM 43.1306 -116.9994 230° Southwest 424 488 32,000  Level Salt Lake Center
Sun 05:34:53 PM 43.0453 -117.1403 230° Southwest 427 491 32,000  Level Salt Lake Center
Sun 05:35:55 PM 42.9717 -117.2578 229° Southwest 427 491 32,000  Level Salt Lake Center
Sun 05:36:57 PM 42.8853 -117.3961 230° Southwest 428 493 32,000  Level Salt Lake Center
Sun 05:37:59 PM 42.8133 -117.5144 230° Southwest 424 488 32,000  Level Salt Lake Center
Sun 05:39:01 PM 42.7406 -117.6314 230° Southwest 423 487 32,000  Level Salt Lake Center
Sun 05:40:03 PM 42.6542 -117.7678 229° Southwest 425 489 32,000  Level Salt Lake Center
Sun 05:41:05 PM 42.5753 -117.8761 225° Southwest 422 486 32,000  Level Salt Lake Center
Sun 05:42:07 PM 42.4567 -117.9492 204° Southwest 420 483 32,000  Level Salt Lake Center
Sun 05:43:09 PM 42.3547 -118.0117 204° Southwest 418 481 32,000  Level Salt Lake Center
Sun 05:44:11 PM 42.2361 -118.0842 204° Southwest 419 482 32,000  Level Salt Lake Center
Sun 05:45:13 PM 42.1292 -118.1511 205° Southwest 418 481 32,000  Level Salt Lake Center
Sun 05:46:15 PM 42.0392 -118.2372 215° Southwest 415 478 32,000  Level Salt Lake Center
Sun 05:47:17 PM 41.9467 -118.3644 226° Southwest 423 487 32,000  Level Salt Lake Center
Sun 05:48:19 PM 41.8675 -118.4703 225° Southwest 423 487 32,000  Level Salt Lake Center
Sun 05:49:21 PM 41.7747 -118.5944 225° Southwest 422 486 32,000  Level Salt Lake Center
Sun 05:50:23 PM 41.6961 -118.7017 226° Southwest 422 486 32,000  Level Salt Lake Center
Sun 05:51:23 PM 41.6050 -118.8250 225° Southwest 425 489 32,000  Level Oakland Center
Sun 05:52:27 PM 41.5231 -118.9336 225° Southwest 425 489 32,000  Level Salt Lake Center
Sun 05:53:29 PM 41.4292 -119.0564 224° Southwest 425 489 32,000  Level Salt Lake Center
Sun 05:54:28 PM 41.3500 -119.1608 225° Southwest 423 487 32,000  Level Oakland Center
Sun 05:55:29 PM 41.2725 -119.2642 225° Southwest 421 484 32,000  Level Oakland Center
Sun 05:56:32 PM 41.1781 -119.3883 225° Southwest 427 491 32,000  Level Oakland Center
Sun 05:57:32 PM 41.0992 -119.4908 224° Southwest 423 487 32,000  Level Oakland Center
Sun 05:58:34 PM 41.0172 -119.5981 225° Southwest 425 489 32,000  Level Oakland Center
Sun 05:59:35 PM 40.9233 -119.7206 225° Southwest 427 491 32,000  Level Oakland Center
Sun 06:00:38 PM 40.8453 -119.8228 225° Southwest 425 489 32,000  Level Seattle Center
Sun 06:01:38 PM 40.7619 -119.9258 223° Southwest 418 481 32,000  Level Oakland Center
Sun 06:02:40 PM 40.6600 -120.0539 224° Southwest 420 483 32,000  Level Oakland Center
Sun 06:03:41 PM 40.5767 -120.1664 226° Southwest 421 484 32,000  Level Seattle Center
Sun 06:04:42 PM 40.4936 -120.2725 224° Southwest 416 479 32,000  Level Seattle Center
Sun 06:05:44 PM 40.4092 -120.3756 223° Southwest 420 483 32,000  Level Oakland Center
Sun 06:06:46 PM 40.3231 -120.4828 224° Southwest 428 493 32,000 -537 Level Oakland Center
Sun 06:07:47 PM 40.2339 -120.5978 225° Southwest 444 511 30,900 -1,000 Descending Oakland Center
Sun 06:08:46 PM 40.1436 -120.7119 224° Southwest 452 520 30,000 -450 Descending Seattle Center
Sun 06:09:47 PM 40.0433 -120.8175 219° Southwest 460 529 30,000  Level Seattle Center
Sun 06:10:52 PM 39.9300 -120.9369 219° Southwest 462 532 30,000  Level Oakland Center
Sun 06:11:53 PM 39.8317 -121.0450 220° Southwest 464 534 30,000  Level Oakland Center
Sun 06:12:54 PM 39.7225 -121.1594 219° Southwest 462 532 30,000  Level Oakland Center
Sun 06:13:56 PM 39.6231 -121.2669 220° Southwest 462 532 30,000  Level Oakland Center
Sun 06:14:57 PM 39.5231 -121.3731 219° Southwest 463 533 30,000  Level Oakland Center
Sun 06:15:59 PM 39.4147 -121.4883 219° Southwest 463 533 30,000  Level Oakland Center
Sun 06:17:00 PM 39.3144 -121.5928 219° Southwest 464 534 30,000  Level Oakland Center
Sun 06:18:02 PM 39.2156 -121.6972 219° Southwest 463 533 30,000 -49 Level Oakland Center
Sun 06:19:03 PM 39.1172 -121.8022 220° Southwest 462 532 29,900 -780 Descending Oakland Center
Sun 06:20:05 PM 39.0158 -121.9075 219° Southwest 468 539 28,400 -2,098 Descending Oakland Center
Sun 06:21:06 PM 38.9150 -122.0131 219° Southwest 471 542 25,600 -2,634 Descending Oakland Center
Sun 06:22:08 PM 38.8014 -122.1314 219° Southwest 447 514 23,000 -2,244 Descending Oakland Center
Sun 06:23:09 PM 38.7078 -122.2269 219° Southwest 434 499 21,000 -1,805 Descending Oakland Center
Sun 06:24:11 PM 38.6267 -122.3131 220° Southwest 419 482 19,300 -1,756 Descending Oakland Center
Sun 06:25:12 PM 38.5283 -122.3844 210° Southwest 418 481 17,400 -1,756 Descending Oakland Center
Sun 06:26:14 PM 38.4286 -122.4317 200° South 384 442 15,700 -1,756 Descending Oakland Center
Sun 06:27:15 PM 38.3075 -122.4881 200° South 387 445 13,800 -1,672 Descending Oakland Center
Sun 06:28:16 PM 38.2086 -122.5336 200° South 378 435 12,300 -1,317 Descending Oakland Center
Sun 06:29:18 PM 38.1150 -122.5761 200° South 360 414 11,100 -634 Descending Oakland Center
Sun 06:30:19 PM 38.0281 -122.5989 192° South 322 371 11,000 -49 Descending Oakland Center
Sun 06:31:21 PM 37.9319 -122.6086 185° South 329 379 11,000  Level Oakland Center
Sun 06:32:22 PM 37.8550 -122.5517 150° Southeast 325 374 11,000  Level Oakland Center
Sun 06:33:24 PM 37.7839 -122.4975 149° Southeast 311 358 11,000  Level Oakland Center
Sun 06:34:25 PM 37.7111 -122.4433 150° Southeast 306 352 11,000  Level Oakland Center
Sun 06:35:26 PM 37.6417 -122.3914 149° Southeast 300 345 11,000 -49 Level Oakland Center
Sun 06:36:28 PM 37.5803 -122.3456 149° Southeast 276 318 10,900 -634 Descending Oakland Center
Sun 06:37:29 PM 37.5194 -122.3006 150° Southeast 262 302 9,700 -1,139 Descending Oakland Center
Sun 06:38:45 PM 37.4667 -122.2000 123° Southeast 241 277 8,300 -1,191 Descending Northern Cal TRACON
Sun 06:39:45 PM 37.4333 -122.1333 122° Southeast 213 245 7,000 -1,200 Descending Northern Cal TRACON
Sun 06:40:45 PM 37.4333 -122.0667 90° East 227 261 5,900 -1,200 Descending Northern Cal TRACON
Sun 06:41:45 PM 37.4833 -122.0500 15° North 208 239 4,600 -900 Descending Northern Cal TRACON
Sun 06:42:45 PM 37.5167 -122.1000 310° West 186 214 4,100 -650 Descending Northern Cal TRACON
Sun 06:43:45 PM 37.5333 -122.1667 288° West 178 205 3,300 -810 Descending Northern Cal TRACON
Sun 06:44:51 PM 37.5500 -122.2167 293° West 187 215 2,400 -810 Descending Northern Cal TRACON
Sun 06:45:51 PM 37.5833 -122.2833 302° West 160 184 1,600 -714 Descending Northern Cal TRACON
Sun 06:46:57 PM 37.6000 -122.3167 302° West 139 160 900 -636 Descending Northern Cal TRACON

Login

Don't have an account? Register now (free) for customized features, flight alerts, and more!